Time;durP1;ratioP1;P1;durP2;ratioP2;P2;SDS_P1;SDS_P2;PMS_P1;PMS_P2;Temp;Humidity;BMP_temperature;BMP_pressure;BME280_temperature;BME280_humidity;BME280_pressure;Samples;Min_cycle;Max_cycle;Signal;HPM_P1;HPM_P2
2021/07/26 00:02:29;;;;;;;4.28;3.58;;;23.70;69.30;;;;;;10452807;28;20070;-48
2021/07/26 00:07:30;;;;;;;3.78;3.40;;;23.70;69.30;;;;;;10455453;28;20108;-50
2021/07/26 00:12:32;;;;;;;4.03;3.47;;;23.60;69.20;;;;;;10455392;28;20131;-43
2021/07/26 00:17:33;;;;;;;4.03;3.10;;;23.60;69.20;;;;;;10437693;28;20436;-48
2021/07/26 00:22:34;;;;;;;5.40;3.03;;;23.60;69.30;;;;;;10455579;28;20067;-43
2021/07/26 00:27:35;;;;;;;4.07;3.58;;;23.60;69.90;;;;;;10454846;28;20595;-49
2021/07/26 00:32:36;;;;;;;3.90;3.30;;;23.60;69.30;;;;;;10455200;28;20560;-43
2021/07/26 00:37:36;;;;;;;4.07;3.67;;;23.60;69.20;;;;;;10436928;28;20048;-45
2021/07/26 00:42:37;;;;;;;4.97;3.33;;;23.60;69.20;;;;;;10454652;28;20065;-44
2021/07/26 00:47:38;;;;;;;3.95;3.38;;;23.60;69.20;;;;;;10437083;28;20457;-48
2021/07/26 00:52:39;;;;;;;4.50;3.45;;;23.50;69.20;;;;;;10436953;28;20125;-45
2021/07/26 00:57:40;;;;;;;4.18;3.65;;;23.60;69.20;;;;;;10454242;28;20051;-47
2021/07/26 01:02:41;;;;;;;3.88;3.30;;;23.60;69.20;;;;;;10435082;28;20028;-44
2021/07/26 01:07:41;;;;;;;3.83;3.20;;;23.60;69.20;;;;;;10436609;28;20758;-44
2021/07/26 01:12:43;;;;;;;4.70;3.70;;;23.50;69.10;;;;;;10456381;28;20029;-43
2021/07/26 01:18:21;;;;;;;3.90;3.10;;;23.60;69.20;;;;;;10461409;28;20164;-49
2021/07/26 01:23:23;;;;;;;4.47;3.38;;;23.60;69.10;;;;;;10463375;28;20036;-49
2021/07/26 01:28:30;;;;;;;5.05;3.50;;;23.50;69.00;;;;;;10443501;28;20043;-45
2021/07/26 01:33:31;;;;;;;4.03;3.30;;;23.60;69.00;;;;;;10461121;28;20470;-44
2021/07/26 01:38:32;;;;;;;3.92;3.00;;;23.60;69.10;;;;;;10460918;28;20025;-43
2021/07/26 01:43:38;;;;;;;3.47;2.85;;;23.50;69.00;;;;;;10460408;28;20558;-47
2021/07/26 01:49:02;;;;;;;3.10;2.60;;;23.50;69.00;;;;;;10459927;28;20086;-44
2021/07/26 01:54:03;;;;;;;3.95;2.90;;;23.50;68.90;;;;;;10460175;28;20365;-43
2021/07/26 01:59:04;;;;;;;4.88;3.50;;;23.50;68.90;;;;;;10458582;28;20032;-44
2021/07/26 02:04:05;;;;;;;2.95;2.65;;;23.50;68.90;;;;;;10434466;28;20435;-44
2021/07/26 02:09:05;;;;;;;2.90;2.53;;;23.50;68.80;;;;;;10459735;28;20047;-44
2021/07/26 02:14:09;;;;;;;4.95;3.03;;;23.50;68.90;;;;;;10459353;28;20032;-44
2021/07/26 02:19:10;;;;;;;2.80;2.40;;;23.50;68.80;;;;;;10442511;28;20454;-45
2021/07/26 02:24:11;;;;;;;3.08;2.55;;;23.40;68.80;;;;;;10460772;28;20100;-44
2021/07/26 02:29:12;;;;;;;3.50;2.92;;;23.50;68.80;;;;;;10458948;28;20120;-48
2021/07/26 02:34:13;;;;;;;4.05;2.92;;;23.40;68.80;;;;;;10458712;28;20079;-43
2021/07/26 02:39:13;;;;;;;3.60;2.47;;;23.40;68.70;;;;;;10441287;28;20143;-45
2021/07/26 02:44:14;;;;;;;3.03;2.50;;;23.40;68.70;;;;;;10458243;28;20171;-44
2021/07/26 02:49:15;;;;;;;3.60;2.70;;;23.40;68.70;;;;;;10457933;28;20118;-43
2021/07/26 02:54:15;;;;;;;3.88;2.53;;;23.40;68.80;;;;;;10458081;28;20439;-44
2021/07/26 02:59:16;;;;;;;3.60;2.80;;;23.40;68.80;;;;;;10454608;28;20446;-45
2021/07/26 03:04:18;;;;;;;3.05;2.40;;;23.40;68.80;;;;;;10451554;28;20366;-44
2021/07/26 03:09:18;;;;;;;3.05;2.45;;;23.40;68.90;;;;;;10430796;28;20033;-44
2021/07/26 03:14:19;;;;;;;4.10;2.88;;;23.40;68.90;;;;;;10457011;28;20120;-44
2021/07/26 03:19:20;;;;;;;3.88;2.50;;;23.40;68.90;;;;;;10457274;28;20505;-44
2021/07/26 03:24:20;;;;;;;3.80;2.97;;;23.40;68.90;;;;;;10457674;28;20117;-44
2021/07/26 03:29:21;;;;;;;4.22;3.05;;;23.40;68.90;;;;;;10456473;28;20052;-44
2021/07/26 03:34:22;;;;;;;3.80;2.58;;;23.40;68.90;;;;;;10456582;28;20061;-44
2021/07/26 03:39:22;;;;;;;4.43;3.30;;;23.40;68.90;;;;;;10454658;28;20516;-46
2021/07/26 03:44:23;;;;;;;3.00;2.50;;;23.30;68.80;;;;;;10454711;28;20076;-43
2021/07/26 03:49:24;;;;;;;3.03;2.60;;;23.30;68.80;;;;;;10452885;28;20037;-43
2021/07/26 03:54:24;;;;;;;2.92;2.40;;;23.30;68.80;;;;;;10444204;28;20064;-44
2021/07/26 03:59:25;;;;;;;4.05;2.75;;;23.30;68.80;;;;;;10455326;28;20061;-46
2021/07/26 04:04:26;;;;;;;3.85;2.97;;;23.30;68.90;;;;;;10455367;28;20099;-48
2021/07/26 04:09:33;;;;;;;4.38;2.88;;;23.30;68.90;;;;;;10454408;28;20029;-44
2021/07/26 04:14:40;;;;;;;2.90;2.45;;;23.30;68.90;;;;;;10453991;28;20106;-45
2021/07/26 04:19:40;;;;;;;4.03;2.83;;;23.30;68.90;;;;;;10434344;28;20021;-47
2021/07/26 04:24:41;;;;;;;5.10;3.13;;;23.40;68.90;;;;;;10453565;28;20060;-43
2021/07/26 04:29:42;;;;;;;4.72;2.92;;;23.30;69.00;;;;;;10453667;28;20056;-48
2021/07/26 04:34:42;;;;;;;4.35;3.20;;;23.40;69.10;;;;;;10453358;28;20094;-43
2021/07/26 04:39:43;;;;;;;4.40;3.35;;;23.40;69.20;;;;;;10453213;28;20505;-49
2021/07/26 04:44:44;;;;;;;4.15;3.55;;;23.40;69.20;;;;;;10453421;28;20064;-45
2021/07/26 04:49:44;;;;;;;6.43;3.33;;;23.30;69.30;;;;;;10458498;28;20497;-46
2021/07/26 04:54:45;;;;;;;3.92;3.33;;;23.40;69.30;;;;;;10461739;28;20112;-46
2021/07/26 04:59:46;;;;;;;5.25;3.25;;;23.40;69.40;;;;;;10461889;28;20056;-46
2021/07/26 05:04:46;;;;;;;5.53;3.92;;;23.30;70.30;;;;;;10461438;28;20060;-46
2021/07/26 05:09:47;;;;;;;3.45;2.92;;;23.40;70.50;;;;;;10460150;28;20422;-47
2021/07/26 05:14:51;;;;;;;6.57;3.65;;;23.40;70.60;;;;;;10460994;28;20067;-44
2021/07/26 05:19:51;;;;;;;6.10;3.15;;;23.50;71.00;;;;;;10460097;28;20028;-49
2021/07/26 05:24:52;;;;;;;8.73;3.60;;;23.40;70.70;;;;;;10460421;28;20131;-44
2021/07/26 05:29:53;;;;;;;11.32;4.70;;;23.40;71.10;;;;;;10442542;28;20117;-46
2021/07/26 05:34:53;;;;;;;5.80;3.58;;;23.50;70.90;;;;;;10441607;28;20075;-43
2021/07/26 05:39:54;;;;;;;7.40;3.70;;;23.50;71.10;;;;;;10459913;28;20508;-45
2021/07/26 05:44:56;;;;;;;10.18;4.40;;;23.50;71.00;;;;;;10459728;28;20138;-44
2021/07/26 05:49:57;;;;;;;9.25;4.70;;;23.50;71.00;;;;;;10430785;28;20035;-49
2021/07/26 05:54:58;;;;;;;12.15;5.00;;;23.50;71.00;;;;;;10436592;28;20437;-46
2021/07/26 05:59:58;;;;;;;17.20;5.57;;;23.50;71.20;;;;;;10455332;28;20049;-45
2021/07/26 06:04:59;;;;;;;14.38;6.18;;;23.50;71.30;;;;;;10439989;28;20025;-45
2021/07/26 06:10:00;;;;;;;13.40;5.75;;;23.50;71.60;;;;;;10433909;28;20063;-48
2021/07/26 06:15:00;;;;;;;11.60;5.10;;;23.50;70.90;;;;;;10447312;28;20048;-43
2021/07/26 06:20:03;;;;;;;10.63;4.75;;;23.50;70.80;;;;;;10433886;28;20017;-46
2021/07/26 06:25:15;;;;;;;12.18;5.47;;;23.40;70.70;;;;;;10438812;28;20110;-45
2021/07/26 06:30:15;;;;;;;16.27;5.53;;;23.50;70.90;;;;;;10456918;28;20021;-50
2021/07/26 06:35:16;;;;;;;12.40;5.60;;;23.50;70.90;;;;;;10435971;28;20536;-44
2021/07/26 06:40:17;;;;;;;15.90;6.07;;;23.50;71.00;;;;;;10437210;28;20047;-44
2021/07/26 06:45:18;;;;;;;14.70;6.70;;;23.50;71.20;;;;;;10453473;28;20470;-44
2021/07/26 06:50:18;;;;;;;14.55;6.53;;;23.50;71.20;;;;;;10447489;28;20444;-46
2021/07/26 06:55:19;;;;;;;22.05;6.60;;;23.50;71.10;;;;;;10437131;28;20083;-46
2021/07/26 07:00:20;;;;;;;12.75;6.13;;;23.50;71.10;;;;;;10456583;28;20036;-44
2021/07/26 07:05:21;;;;;;;11.80;6.38;;;23.50;71.10;;;;;;10456416;28;20029;-48
2021/07/26 07:10:22;;;;;;;17.45;7.25;;;23.50;71.10;;;;;;10456508;28;20036;-44
2021/07/26 07:15:23;;;;;;;17.92;6.80;;;23.50;71.20;;;;;;10453739;28;20055;-47
2021/07/26 07:20:24;;;;;;;15.07;6.07;;;23.50;71.20;;;;;;10457526;28;20474;-48
2021/07/26 07:25:25;;;;;;;13.60;6.07;;;23.50;70.90;;;;;;10456418;28;20131;-45
2021/07/26 07:30:26;;;;;;;12.07;6.32;;;23.50;70.70;;;;;;10456383;28;20087;-45
2021/07/26 07:35:27;;;;;;;8.55;5.20;;;23.50;70.60;;;;;;10455945;28;20461;-45
2021/07/26 07:40:28;;;;;;;10.73;5.88;;;23.50;70.20;;;;;;10438142;28;20485;-43
2021/07/26 07:45:28;;;;;;;9.65;5.85;;;23.50;69.90;;;;;;10437712;28;20043;-47
2021/07/26 07:50:29;;;;;;;16.67;6.32;;;23.40;70.50;;;;;;10455388;28;20053;-44
2021/07/26 07:55:30;;;;;;;15.25;6.88;;;23.50;70.80;;;;;;10454848;28;20481;-47
2021/07/26 08:00:31;;;;;;;17.25;6.82;;;23.30;70.10;;;;;;10434792;28;20107;-47
2021/07/26 08:05:32;;;;;;;8.10;5.95;;;23.40;70.70;;;;;;10429729;28;20404;-45
2021/07/26 08:10:32;;;;;;;7.82;6.35;;;23.40;71.00;;;;;;10430452;28;20565;-46
2021/07/26 08:15:33;;;;;;;7.72;5.32;;;23.40;71.00;;;;;;10454388;28;20112;-48
2021/07/26 08:20:34;;;;;;;8.60;5.45;;;23.50;71.00;;;;;;10455146;28;20040;-43
2021/07/26 08:25:34;;;;;;;6.88;5.25;;;23.40;70.90;;;;;;10462089;28;20025;-46
2021/07/26 08:30:37;;;;;;;33.80;5.93;;;23.50;70.80;;;;;;10461850;28;20060;-47
2021/07/26 08:35:38;;;;;;;12.52;6.03;;;23.50;70.70;;;;;;10427645;28;20116;-45
2021/07/26 08:40:38;;;;;;;14.88;5.38;;;23.50;74.60;;;;;;10462817;28;20045;-46
2021/07/26 08:45:39;;;;;;;12.18;5.20;;;23.60;74.70;;;;;;10462830;28;20123;-50
2021/07/26 08:50:42;;;;;;;12.85;5.85;;;23.50;73.90;;;;;;10462510;28;20107;-46
2021/07/26 08:55:43;;;;;;;13.50;5.43;;;23.60;74.20;;;;;;10462419;28;20425;-47
2021/07/26 09:00:44;;;;;;;6.57;5.28;;;23.60;73.70;;;;;;10453178;28;20128;-45
2021/07/26 09:05:44;;;;;;;8.98;6.25;;;23.50;73.10;;;;;;10462260;28;20021;-50
2021/07/26 09:10:45;;;;;;;6.60;5.50;;;23.60;73.40;;;;;;10461301;28;20061;-45
2021/07/26 09:15:46;;;;;;;8.35;4.97;;;23.60;73.10;;;;;;10442437;28;20104;-47
2021/07/26 09:20:52;;;;;;;9.25;5.20;;;23.50;72.70;;;;;;10460063;28;20097;-48
2021/07/26 09:25:53;;;;;;;9.20;5.50;;;23.60;72.50;;;;;;10458313;28;20174;-51
2021/07/26 09:30:55;;;;;;;7.82;5.88;;;23.50;72.20;;;;;;10458177;28;20101;-45
2021/07/26 09:36:19;;;;;;;8.80;4.95;;;23.50;71.80;;;;;;10460136;28;20460;-49
2021/07/26 09:41:43;;;;;;;6.53;4.72;;;23.50;72.30;;;;;;10460006;28;20029;-47
2021/07/26 09:46:44;;;;;;;7.97;5.05;;;23.50;72.10;;;;;;10440354;28;20131;-46
2021/07/26 09:52:09;;;;;;;11.05;5.85;;;23.60;72.50;;;;;;10459933;28;20421;-48
2021/07/26 09:57:23;;;;;;;7.80;4.93;;;23.50;71.90;;;;;;10442559;28;20025;-46
2021/07/26 10:02:24;;;;;;;8.13;4.60;;;23.60;71.90;;;;;;10459793;28;20430;-45
2021/07/26 10:07:27;;;;;;;7.45;4.72;;;23.60;71.80;;;;;;10459309;28;20288;-43
2021/07/26 10:12:28;;;;;;;4.97;3.63;;;23.60;71.80;;;;;;10422856;28;20044;-44
2021/07/26 10:17:29;;;;;;;6.60;4.47;;;23.60;71.60;;;;;;10459228;28;20021;-46
2021/07/26 10:22:31;;;;;;;7.45;4.00;;;23.60;70.80;;;;;;10438422;28;20064;-45
2021/07/26 10:27:34;;;;;;;5.82;4.30;;;23.50;70.40;;;;;;10441084;28;20063;-48
2021/07/26 10:32:37;;;;;;;5.78;3.20;;;23.50;70.30;;;;;;10440998;28;20108;-47
2021/07/26 10:37:41;;;;;;;9.43;4.80;;;23.50;70.40;;;;;;10440523;28;20033;-46
2021/07/26 10:42:42;;;;;;;11.52;4.50;;;23.50;70.70;;;;;;10457917;28;20057;-45
2021/07/26 10:47:42;;;;;;;10.25;4.85;;;23.50;70.60;;;;;;10439141;28;20072;-48
2021/07/26 10:52:44;;;;;;;6.75;4.45;;;23.50;70.10;;;;;;10439808;28;20469;-44
2021/07/26 10:57:46;;;;;;;8.15;5.53;;;23.50;70.50;;;;;;10439169;28;20031;-46
2021/07/26 11:02:49;;;;;;;9.32;4.72;;;23.60;70.80;;;;;;10455762;28;20029;-45
2021/07/26 11:08:18;;;;;;;6.07;4.90;;;23.60;70.60;;;;;;10456548;28;20028;-49
2021/07/26 11:13:20;;;;;;;9.83;4.77;;;23.60;70.40;;;;;;10456799;28;20039;-43
2021/07/26 11:18:32;;;;;;;4.25;3.85;;;23.60;70.30;;;;;;10456838;28;20017;-44
2021/07/26 11:23:52;;;;;;;4.05;3.63;;;23.60;70.40;;;;;;10440570;28;20453;-45
2021/07/26 11:29:02;;;;;;;7.00;3.47;;;23.60;70.20;;;;;;10455460;28;20032;-44
2021/07/26 11:34:14;;;;;;;5.63;2.88;;;23.60;69.90;;;;;;10437118;28;20037;-49
2021/07/26 11:39:15;;;;;;;7.20;3.10;;;23.50;69.70;;;;;;10454037;28;20021;-46
2021/07/26 11:44:27;;;;;;;10.38;3.60;;;23.60;69.90;;;;;;10455149;28;20072;-48
2021/07/26 11:49:28;;;;;;;5.57;3.78;;;23.60;70.00;;;;;;10453238;28;20051;-43
2021/07/26 11:54:29;;;;;;;9.40;3.80;;;23.60;69.60;;;;;;10455703;28;20108;-44
2021/07/26 11:59:31;;;;;;;8.10;3.65;;;23.60;69.50;;;;;;10448563;28;20029;-44
2021/07/26 12:04:32;;;;;;;6.90;3.10;;;23.60;69.70;;;;;;10451152;28;20107;-43
2021/07/26 12:09:49;;;;;;;3.78;2.95;;;23.60;69.80;;;;;;10437165;28;20056;-45
2021/07/26 12:14:50;;;;;;;5.78;3.67;;;23.50;69.80;;;;;;10455001;28;20051;-47
2021/07/26 12:20:04;;;;;;;4.72;3.40;;;23.50;69.80;;;;;;10438419;28;20036;-46
2021/07/26 12:25:25;;;;;;;4.60;2.97;;;23.50;69.50;;;;;;10454564;28;20044;-46
2021/07/26 12:30:41;;;;;;;4.45;3.10;;;23.60;69.80;;;;;;10436875;28;20028;-46
2021/07/26 12:35:42;;;;;;;6.30;3.80;;;23.60;69.70;;;;;;10437456;28;20055;-46
2021/07/26 12:40:48;;;;;;;6.10;3.47;;;23.60;70.20;;;;;;10436475;28;20055;-46
2021/07/26 12:46:08;;;;;;;4.60;3.22;;;23.60;69.90;;;;;;10454691;28;20064;-46
2021/07/26 12:51:09;;;;;;;4.00;3.58;;;23.60;69.80;;;;;;10453667;28;20155;-45
2021/07/26 12:56:10;;;;;;;5.28;3.22;;;23.60;69.70;;;;;;10453883;28;20166;-44
2021/07/26 13:01:10;;;;;;;4.15;3.38;;;23.60;69.60;;;;;;10435945;28;20112;-61
2021/07/26 13:06:11;;;;;;;4.22;3.28;;;23.60;69.80;;;;;;10435708;28;20040;-61
2021/07/26 13:11:12;;;;;;;5.25;3.85;;;23.60;69.60;;;;;;10459859;28;20116;-61
2021/07/26 13:16:14;;;;;;;22.48;17.38;;;23.60;70.30;;;;;;10461235;28;20115;-61
2021/07/26 13:21:15;;;;;;;18.38;9.50;;;23.70;74.80;;;;;;10460444;28;20110;-59
2021/07/26 13:26:16;;;;;;;16.02;10.85;;;23.70;73.00;;;;;;10461203;28;20508;-58
2021/07/26 13:31:17;;;;;;;11.45;8.73;;;23.70;74.40;;;;;;10460697;28;20116;-59
2021/07/26 13:36:17;;;;;;;10.75;7.78;;;23.70;73.80;;;;;;10460684;28;20546;-58
2021/07/26 13:41:18;;;;;;;12.82;7.18;;;23.70;74.00;;;;;;10459629;28;20083;-59
2021/07/26 13:46:19;;;;;;;7.53;6.70;;;23.70;73.00;;;;;;10459479;28;20440;-60
2021/07/26 13:51:19;;;;;;;11.23;7.50;;;23.70;72.50;;;;;;10459394;28;20082;-60
2021/07/26 13:56:20;;;;;;;9.73;6.43;;;23.70;73.30;;;;;;10459532;28;20447;-61
2021/07/26 14:01:21;;;;;;;8.55;6.13;;;23.70;72.40;;;;;;10453966;28;20029;-61
2021/07/26 14:06:22;;;;;;;6.88;5.70;;;23.70;72.10;;;;;;10459580;28;20150;-60
2021/07/26 14:11:22;;;;;;;10.02;7.75;;;23.70;73.20;;;;;;10459248;28;20444;-62
2021/07/26 14:16:23;;;;;;;12.48;7.85;;;23.70;72.50;;;;;;10441299;28;20104;-60
2021/07/26 14:21:25;;;;;;;10.52;6.85;;;23.70;72.70;;;;;;10440687;28;20093;-60
2021/07/26 14:26:26;;;;;;;11.48;7.57;;;23.70;72.90;;;;;;10458767;28;20035;-59
2021/07/26 14:31:27;;;;;;;11.63;7.75;;;23.70;72.50;;;;;;10440730;28;20377;-60
2021/07/26 14:36:28;;;;;;;8.73;7.05;;;23.70;72.80;;;;;;10458255;28;20103;-60
2021/07/26 14:41:29;;;;;;;13.27;8.05;;;23.70;72.70;;;;;;10457184;28;20128;-62
2021/07/26 14:46:30;;;;;;;16.08;7.72;;;23.70;72.90;;;;;;10456950;28;20483;-60
2021/07/26 14:51:31;;;;;;;7.82;6.32;;;23.70;73.00;;;;;;10457806;28;20055;-61
2021/07/26 14:56:33;;;;;;;9.63;6.75;;;23.70;72.20;;;;;;10438534;28;20071;-58
2021/07/26 15:01:34;;;;;;;9.00;6.70;;;23.70;71.90;;;;;;10446212;28;20061;-58
2021/07/26 15:06:35;;;;;;;7.43;6.47;;;23.70;72.00;;;;;;10438961;28;20433;-58
2021/07/26 15:11:36;;;;;;;7.22;5.63;;;23.60;72.70;;;;;;10456598;28;20044;-58
2021/07/26 15:16:36;;;;;;;8.88;7.15;;;23.70;71.90;;;;;;10457083;28;20490;-59
2021/07/26 15:21:37;;;;;;;10.07;7.82;;;23.70;71.80;;;;;;10458325;28;20453;-61
2021/07/26 15:26:38;;;;;;;9.48;6.75;;;23.70;71.70;;;;;;10456238;28;20056;-61
2021/07/26 15:31:38;;;;;;;10.77;7.28;;;23.70;71.60;;;;;;10455891;28;20029;-62
2021/07/26 15:36:39;;;;;;;12.98;7.65;;;23.60;71.80;;;;;;10455648;28;20064;-62
2021/07/26 15:41:42;;;;;;;14.88;7.90;;;23.60;71.60;;;;;;10455201;28;20099;-60
2021/07/26 15:46:43;;;;;;;12.48;9.25;;;23.60;71.90;;;;;;10455942;28;20020;-62
2021/07/26 15:51:43;;;;;;;17.25;9.85;;;23.60;72.10;;;;;;10455641;28;20362;-62
2021/07/26 15:56:44;;;;;;;17.27;8.82;;;23.60;71.80;;;;;;10454787;28;20044;-64
2021/07/26 16:01:45;;;;;;;14.50;8.68;;;23.60;71.40;;;;;;10450342;28;20110;-60
2021/07/26 16:06:46;;;;;;;17.52;9.15;;;23.60;71.20;;;;;;10454398;28;20519;-62
2021/07/26 16:11:48;;;;;;;15.32;8.05;;;23.60;71.00;;;;;;10437425;28;20385;-62
2021/07/26 16:16:50;;;;;;;11.13;7.53;;;23.70;71.30;;;;;;10455115;28;20025;-62
2021/07/26 16:21:50;;;;;;;10.00;6.78;;;23.70;71.30;;;;;;10437734;28;20048;-61
2021/07/26 16:26:51;;;;;;;9.02;5.55;;;23.70;71.10;;;;;;10454815;28;20072;-62
2021/07/26 16:31:52;;;;;;;10.55;6.07;;;23.70;70.90;;;;;;10454460;28;20056;-64
2021/07/26 16:36:53;;;;;;;5.65;4.57;;;23.70;70.60;;;;;;10453641;28;20118;-62
2021/07/26 16:41:54;;;;;;;10.20;5.32;;;23.70;70.50;;;;;;10436310;28;20052;-61
2021/07/26 16:46:55;;;;;;;7.80;4.47;;;23.70;70.90;;;;;;10461950;28;20036;-63
2021/07/26 16:51:57;;;;;;;13.23;4.90;;;23.70;70.40;;;;;;10444987;28;20051;-62
2021/07/26 16:56:58;;;;;;;16.45;4.82;;;23.80;70.40;;;;;;10462383;28;20083;-63
2021/07/26 17:01:58;;;;;;;10.25;4.70;;;23.70;70.30;;;;;;10443794;28;20047;-64
2021/07/26 17:06:59;;;;;;;6.53;4.70;;;23.70;70.30;;;;;;10439418;28;20109;-63
2021/07/26 17:12:00;;;;;;;8.73;5.00;;;23.70;70.20;;;;;;10461847;28;20389;-65
2021/07/26 17:17:01;;;;;;;7.80;5.13;;;23.70;69.80;;;;;;10461346;28;20031;-59
2021/07/26 17:22:03;;;;;;;5.90;4.80;;;23.70;69.70;;;;;;10443183;28;20478;-59
2021/07/26 17:27:04;;;;;;;8.82;5.43;;;23.70;69.90;;;;;;10460873;28;20114;-62
2021/07/26 17:32:05;;;;;;;6.75;5.85;;;23.70;70.00;;;;;;10458091;28;20486;-61
2021/07/26 17:37:06;;;;;;;7.60;5.43;;;23.70;70.20;;;;;;10460263;28;20033;-62
2021/07/26 17:42:08;;;;;;;7.22;5.82;;;23.60;70.10;;;;;;10459813;28;20118;-62
2021/07/26 17:47:08;;;;;;;6.28;5.53;;;23.70;70.10;;;;;;10459678;28;20043;-62
2021/07/26 17:52:12;;;;;;;9.48;6.78;;;23.70;70.00;;;;;;10459812;28;20385;-62
2021/07/26 17:57:13;;;;;;;8.90;6.50;;;23.60;69.90;;;;;;10458089;28;20052;-60
2021/07/26 18:02:14;;;;;;;5.95;5.30;;;23.60;69.90;;;;;;10441548;28;20106;-61
2021/07/26 18:07:18;;;;;;;6.22;5.63;;;23.60;70.00;;;;;;10441165;28;20064;-60
2021/07/26 18:12:19;;;;;;;8.75;6.65;;;23.60;69.90;;;;;;10457861;28;20504;-62
2021/07/26 18:17:19;;;;;;;9.70;7.25;;;23.50;69.90;;;;;;10452302;28;20116;-61
2021/07/26 18:22:20;;;;;;;8.23;7.07;;;23.60;69.80;;;;;;10452927;28;20111;-59
2021/07/26 18:27:21;;;;;;;10.43;8.15;;;23.60;69.80;;;;;;10451078;28;20444;-60
2021/07/26 18:32:22;;;;;;;9.45;7.85;;;23.60;69.80;;;;;;10456909;28;20112;-61
2021/07/26 18:37:23;;;;;;;9.55;8.00;;;23.60;69.80;;;;;;10456490;28;20353;-60
2021/07/26 18:42:24;;;;;;;12.95;9.73;;;23.60;69.90;;;;;;10457924;28;20115;-49
2021/07/26 18:47:24;;;;;;;12.57;9.52;;;23.60;70.70;;;;;;10457523;28;20112;-47
2021/07/26 18:52:25;;;;;;;10.82;9.63;;;23.50;70.80;;;;;;10457446;28;20516;-48
2021/07/26 18:57:27;;;;;;;13.70;10.07;;;23.50;71.20;;;;;;10438505;28;20080;-48
2021/07/26 19:02:27;;;;;;;18.00;11.23;;;23.50;71.20;;;;;;10456421;28;20028;-46
2021/07/26 19:07:28;;;;;;;13.15;9.57;;;23.50;71.40;;;;;;10456276;28;20056;-48
2021/07/26 19:12:29;;;;;;;12.88;10.65;;;23.50;71.20;;;;;;10456071;28;20025;-47
2021/07/26 19:17:29;;;;;;;12.73;10.52;;;23.50;71.20;;;;;;10456607;28;20025;-51
2021/07/26 19:22:31;;;;;;;12.75;11.05;;;23.50;71.30;;;;;;10440247;28;20064;-49
2021/07/26 19:27:34;;;;;;;11.32;10.10;;;23.60;71.30;;;;;;10456455;28;20035;-49
2021/07/26 19:32:34;;;;;;;14.60;11.95;;;23.60;71.30;;;;;;10455694;28;20394;-52
2021/07/26 19:37:35;;;;;;;12.18;10.88;;;23.60;71.50;;;;;;10455270;28;20282;-50
2021/07/26 19:42:36;;;;;;;12.43;10.20;;;23.60;71.40;;;;;;10437464;28;20069;-50
2021/07/26 19:47:38;;;;;;;13.85;10.55;;;23.60;71.30;;;;;;10455804;28;20065;-50
2021/07/26 19:52:39;;;;;;;9.70;8.52;;;23.50;71.10;;;;;;10454958;28;20047;-47
2021/07/26 19:57:39;;;;;;;9.65;8.63;;;23.50;71.10;;;;;;10434570;28;23025;-46
2021/07/26 20:02:40;;;;;;;9.70;8.05;;;23.50;71.00;;;;;;10451167;28;20025;-47
2021/07/26 20:07:42;;;;;;;10.60;8.00;;;23.50;71.10;;;;;;10450681;28;20037;-49
2021/07/26 20:12:42;;;;;;;8.45;7.43;;;23.50;71.20;;;;;;10452348;28;20367;-46
2021/07/26 20:17:47;;;;;;;7.00;6.30;;;23.50;71.20;;;;;;10443226;28;20034;-47
2021/07/26 20:22:47;;;;;;;8.05;7.25;;;23.50;71.20;;;;;;10437930;28;20118;-46
2021/07/26 20:27:48;;;;;;;9.35;7.28;;;23.50;71.20;;;;;;10451981;28;20071;-47
2021/07/26 20:32:49;;;;;;;7.68;6.82;;;23.50;71.20;;;;;;10432128;28;20033;-48
2021/07/26 20:37:50;;;;;;;7.35;6.18;;;23.40;71.10;;;;;;10454511;28;20061;-47
2021/07/26 20:42:51;;;;;;;6.75;5.82;;;23.40;71.20;;;;;;10454365;28;20045;-47
2021/07/26 20:47:52;;;;;;;7.80;6.38;;;23.40;71.20;;;;;;10441171;28;20037;-47
2021/07/26 20:52:53;;;;;;;6.47;5.47;;;23.40;71.00;;;;;;10433784;28;20065;-46
2021/07/26 20:57:53;;;;;;;7.47;6.38;;;23.40;71.00;;;;;;10454538;28;20114;-46
2021/07/26 21:02:54;;;;;;;6.45;5.85;;;23.40;70.90;;;;;;10448266;28;20064;-48
2021/07/26 21:07:56;;;;;;;6.80;6.00;;;23.40;70.90;;;;;;10443053;28;20501;-46
2021/07/26 21:12:58;;;;;;;6.97;5.82;;;23.40;71.00;;;;;;10454428;28;20077;-46
2021/07/26 21:17:59;;;;;;;6.57;5.88;;;23.40;71.00;;;;;;10452119;28;20116;-48
2021/07/26 21:23:02;;;;;;;6.63;5.78;;;23.40;71.00;;;;;;10447775;28;20037;-46
2021/07/26 21:28:03;;;;;;;5.82;5.22;;;23.40;70.90;;;;;;10450512;28;20048;-49
2021/07/26 21:33:06;;;;;;;6.70;5.97;;;23.40;70.90;;;;;;10432797;28;20040;-51
2021/07/26 21:38:06;;;;;;;6.30;5.63;;;23.40;71.00;;;;;;10452645;28;20116;-51
2021/07/26 21:43:07;;;;;;;7.72;6.88;;;23.40;71.00;;;;;;10460983;28;20493;-52
2021/07/26 21:48:08;;;;;;;6.93;6.22;;;23.40;71.00;;;;;;10454316;28;20067;-48
2021/07/26 21:53:08;;;;;;;6.68;5.95;;;23.40;71.00;;;;;;10460512;28;20033;-46
2021/07/26 21:58:09;;;;;;;8.43;5.40;;;23.40;71.10;;;;;;10460232;28;20053;-51
2021/07/26 22:03:10;;;;;;;7.85;6.30;;;23.30;71.10;;;;;;10449501;28;20029;-46
2021/07/26 22:08:10;;;;;;;6.97;6.05;;;23.30;71.10;;;;;;10459319;28;20055;-50
2021/07/26 22:13:11;;;;;;;8.30;6.40;;;23.30;71.00;;;;;;10459598;28;20080;-47
2021/07/26 22:18:12;;;;;;;6.68;5.90;;;23.30;71.10;;;;;;10459701;28;20032;-48
2021/07/26 22:23:14;;;;;;;7.15;6.35;;;23.30;71.10;;;;;;10444135;28;20033;-50
2021/07/26 22:28:14;;;;;;;7.40;6.25;;;23.30;71.00;;;;;;10441741;28;20162;-47
2021/07/26 22:33:17;;;;;;;8.57;6.25;;;23.30;71.10;;;;;;10459111;28;20182;-45
2021/07/26 22:38:17;;;;;;;7.40;6.63;;;23.30;71.10;;;;;;10444737;28;20040;-48
2021/07/26 22:43:18;;;;;;;6.32;5.72;;;23.30;71.00;;;;;;10440303;28;20473;-46
2021/07/26 22:48:19;;;;;;;6.82;6.13;;;23.30;71.10;;;;;;10458066;28;20025;-50
2021/07/26 22:53:19;;;;;;;8.63;6.63;;;23.30;71.10;;;;;;10458402;28;20036;-48
2021/07/26 22:58:20;;;;;;;7.80;6.22;;;23.30;71.10;;;;;;10457821;28;20518;-48
2021/07/26 23:03:21;;;;;;;8.35;6.20;;;23.30;71.10;;;;;;10457808;28;20061;-47
2021/07/26 23:08:23;;;;;;;7.68;6.45;;;23.30;71.10;;;;;;10457224;28;20029;-49
2021/07/26 23:13:24;;;;;;;8.27;6.25;;;23.30;71.10;;;;;;10439850;28;20048;-46
2021/07/26 23:18:24;;;;;;;7.20;6.47;;;23.30;71.10;;;;;;10457489;28;20037;-47
2021/07/26 23:23:25;;;;;;;8.68;6.93;;;23.30;71.20;;;;;;10457529;28;20036;-46
2021/07/26 23:28:27;;;;;;;7.45;6.75;;;23.30;71.20;;;;;;10431387;28;20119;-49
2021/07/26 23:33:27;;;;;;;7.35;6.55;;;23.20;71.20;;;;;;10456646;28;20025;-46
2021/07/26 23:38:30;;;;;;;8.48;6.90;;;23.30;71.20;;;;;;10456693;28;20495;-47
2021/07/26 23:43:30;;;;;;;7.57;6.85;;;23.20;71.10;;;;;;10456634;28;20053;-46
2021/07/26 23:48:31;;;;;;;8.52;6.90;;;23.20;71.10;;;;;;10455550;28;20032;-50
2021/07/26 23:53:32;;;;;;;8.95;7.38;;;23.20;71.10;;;;;;10456067;28;20029;-45
2021/07/26 23:58:33;;;;;;;8.63;7.43;;;23.20;71.10;;;;;;10455849;28;20063;-47
